createdAt,value
2022-08-04T00:02:24.298Z,64.48
2022-08-04T00:05:11.351Z,64.53
2022-08-04T00:08:14.820Z,64.80
2022-08-04T00:10:48.702Z,64.97
2022-08-04T00:13:16.999Z,65.15
2022-08-04T00:15:44.645Z,65.39
2022-08-04T00:18:15.549Z,65.64
2022-08-04T00:20:42.807Z,65.77
2022-08-04T00:23:10.911Z,65.58
2022-08-04T00:25:41.591Z,65.96
2022-08-04T00:28:09.044Z,66.09
2022-08-04T00:30:35.998Z,66.01
2022-08-04T00:33:03.004Z,66.09
2022-08-04T00:35:29.656Z,66.25
2022-08-04T00:37:57.220Z,66.46
2022-08-04T00:41:06.426Z,66.52
2022-08-04T00:44:05.945Z,66.58
2022-08-04T00:47:02.815Z,66.54
2022-08-04T00:49:51.298Z,66.75
2022-08-04T00:52:43.963Z,66.91
2022-08-04T00:55:28.994Z,67.18
2022-08-04T00:58:20.148Z,67.08
2022-08-04T01:01:03.205Z,67.14
2022-08-04T01:03:49.240Z,67.19
2022-08-04T01:06:34.916Z,67.58
2022-08-04T01:09:25.158Z,67.70
2022-08-04T01:12:06.955Z,67.93
2022-08-04T01:14:39.426Z,67.90
2022-08-04T01:17:28.787Z,67.75
2022-08-04T01:19:58.110Z,68.11
2022-08-04T01:22:44.917Z,67.99
2022-08-04T01:25:58.375Z,68.23
2022-08-04T01:28:50.259Z,68.06
2022-08-04T01:31:35.398Z,68.07
2022-08-04T01:34:05.770Z,68.35
2022-08-04T01:36:35.941Z,68.71
2022-08-04T01:39:24.021Z,68.65
2022-08-04T01:41:58.491Z,68.70
2022-08-04T01:44:29.751Z,68.95
2022-08-04T01:46:56.596Z,69.06
2022-08-04T01:49:39.701Z,69.04
2022-08-04T01:52:09.340Z,69.09
2022-08-04T01:54:38.332Z,69.42
2022-08-04T01:57:38.481Z,69.45
2022-08-04T01:59:53.721Z,69.71
2022-08-04T02:02:24.470Z,69.48
2022-08-04T02:04:51.255Z,69.93
2022-08-04T02:07:40.180Z,69.90
2022-08-04T02:10:41.876Z,70.10
2022-08-04T02:13:21.382Z,70.12
2022-08-04T02:16:13.497Z,70.19
2022-08-04T02:19:05.685Z,69.91
2022-08-04T02:21:42.644Z,70.48
2022-08-04T02:24:14.870Z,70.29
2022-08-04T02:26:46.555Z,70.54
2022-08-04T02:29:35.817Z,70.50
2022-08-04T02:32:06.473Z,70.73
2022-08-04T02:34:54.745Z,70.53
2022-08-04T02:37:24.335Z,70.95
2022-08-04T02:39:53.748Z,71.20
2022-08-04T02:42:20.407Z,70.77
2022-08-04T02:44:51.662Z,70.86
2022-08-04T02:47:22.432Z,70.96
2022-08-04T02:49:51.352Z,71.45
2022-08-04T02:52:19.951Z,71.38
2022-08-04T02:54:49.207Z,71.45
2022-08-04T02:57:19.003Z,71.31
2022-08-04T02:59:45.724Z,71.60
2022-08-04T03:02:12.276Z,71.33
2022-08-04T03:05:03.394Z,71.56
2022-08-04T03:07:58.135Z,71.80
2022-08-04T03:10:54.942Z,71.76
2022-08-04T03:14:00.698Z,71.77
2022-08-04T03:16:54.965Z,71.53
2022-08-04T03:19:24.532Z,71.67
2022-08-04T03:22:12.539Z,71.72
2022-08-04T03:25:03.243Z,71.70
2022-08-04T03:27:54.375Z,71.70
2022-08-04T03:30:37.937Z,71.69
2022-08-04T03:33:45.161Z,71.96
2022-08-04T03:36:17.403Z,71.83
2022-08-04T03:39:02.432Z,71.94
2022-08-04T03:41:55.130Z,71.62
2022-08-04T03:44:59.693Z,71.84
2022-08-04T03:47:49.834Z,71.88
2022-08-04T03:50:23.052Z,71.93
2022-08-04T03:53:13.896Z,71.81
2022-08-04T03:56:02.000Z,71.91
2022-08-04T03:59:01.297Z,72.24
2022-08-04T04:02:23.446Z,72.23
2022-08-04T04:05:59.350Z,71.95
2022-08-04T04:08:55.968Z,72.15
2022-08-04T04:11:34.156Z,72.11
2022-08-04T04:14:46.190Z,72.17
2022-08-04T04:17:37.739Z,72.09
2022-08-04T04:20:32.636Z,71.87
2022-08-04T04:23:23.820Z,71.75
2022-08-04T04:26:07.052Z,71.83
2022-08-04T04:29:07.673Z,71.58
2022-08-04T04:31:53.778Z,71.92
2022-08-04T04:34:46.200Z,71.85
2022-08-04T04:37:34.659Z,71.76
2022-08-04T04:40:32.167Z,71.56
2022-08-04T04:43:23.950Z,71.65
2022-08-04T04:46:32.377Z,71.30
2022-08-04T04:49:08.688Z,71.31
2022-08-04T04:51:48.103Z,71.29
2022-08-04T04:54:28.801Z,71.46
2022-08-04T04:57:10.806Z,71.48
2022-08-04T04:59:41.549Z,71.13
2022-08-04T05:02:24.089Z,70.94
2022-08-04T05:05:25.879Z,70.95
2022-08-04T05:07:58.639Z,70.66
2022-08-04T05:11:02.570Z,70.77
2022-08-04T05:14:38.595Z,69.97
2022-08-04T05:16:33.310Z,69.72
2022-08-04T05:19:34.281Z,69.06
2022-08-04T05:22:14.600Z,68.44
2022-08-04T05:24:46.689Z,68.14
2022-08-04T05:27:22.408Z,68.10
2022-08-04T05:29:59.141Z,68.12
2022-08-04T05:32:31.142Z,67.62
2022-08-04T05:35:07.210Z,67.53
2022-08-04T05:37:38.003Z,67.78
2022-08-04T05:40:07.032Z,67.56
2022-08-04T05:42:38.322Z,67.30
2022-08-04T05:45:07.791Z,67.39
2022-08-04T05:47:35.307Z,67.11
2022-08-04T05:50:06.608Z,67.26
2022-08-04T05:52:36.628Z,66.84
2022-08-04T05:55:05.538Z,66.58
2022-08-04T05:57:33.363Z,66.55
2022-08-04T06:00:19.508Z,66.33
2022-08-04T06:02:51.790Z,66.32
2022-08-04T06:05:19.167Z,66.03
2022-08-04T06:08:11.887Z,65.87
2022-08-04T06:10:37.658Z,66.04
2022-08-04T06:13:08.654Z,66.31
2022-08-04T06:15:39.261Z,66.22
2022-08-04T06:19:58.715Z,66.19
2022-08-04T06:21:03.819Z,66.04
2022-08-04T06:23:53.265Z,66.33
2022-08-04T06:26:26.456Z,66.33
2022-08-04T06:28:54.903Z,66.44
2022-08-04T06:32:27.408Z,66.61
2022-08-04T06:34:31.507Z,66.62
2022-08-04T06:36:59.368Z,66.49
2022-08-04T06:39:28.117Z,66.76
2022-08-04T06:42:20.705Z,66.58
2022-08-04T06:44:44.467Z,66.47
2022-08-04T06:47:13.887Z,66.11
2022-08-04T06:49:55.202Z,66.07
2022-08-04T06:52:28.818Z,65.40
2022-08-04T06:54:58.059Z,65.62
2022-08-04T06:57:29.030Z,65.22
2022-08-04T07:00:17.331Z,64.82
2022-08-04T07:02:53.577Z,64.44
2022-08-04T07:05:21.360Z,64.33
2022-08-04T07:07:57.305Z,63.95
2022-08-04T07:10:29.380Z,63.18
2022-08-04T07:13:01.465Z,62.96
2022-08-04T07:15:31.505Z,62.80
2022-08-04T07:18:00.318Z,62.59
2022-08-04T07:20:34.845Z,62.46
2022-08-04T07:23:06.449Z,62.18
2022-08-04T07:26:00.828Z,62.28
2022-08-04T07:28:26.151Z,62.63
2022-08-04T07:30:53.926Z,61.88
2022-08-04T07:33:21.467Z,61.50
2022-08-04T07:36:09.347Z,61.18
2022-08-04T07:38:48.729Z,60.74
2022-08-04T07:41:38.296Z,60.65
2022-08-04T07:44:05.338Z,60.64
2022-08-04T07:46:32.373Z,60.42
2022-08-04T07:49:01.065Z,60.18
2022-08-04T07:51:30.742Z,60.14
2022-08-04T07:53:58.714Z,59.88
2022-08-04T07:56:26.870Z,59.85
2022-08-04T07:58:54.245Z,59.90
2022-08-04T08:01:21.573Z,60.17
2022-08-04T08:03:48.985Z,59.99
2022-08-04T08:06:30.485Z,60.19
2022-08-04T08:09:02.338Z,59.96
2022-08-04T08:12:35.113Z,59.92
2022-08-04T08:14:32.067Z,59.63
2022-08-04T08:17:00.289Z,58.90
2022-08-04T08:19:26.985Z,58.63
2022-08-04T08:21:58.833Z,58.39
2022-08-04T08:24:27.282Z,57.94
2022-08-04T08:26:54.143Z,56.71
2022-08-04T08:29:21.282Z,56.96
2022-08-04T08:31:57.355Z,56.17
2022-08-04T08:34:28.954Z,56.32
2022-08-04T08:37:03.294Z,56.23
2022-08-04T08:39:40.325Z,55.50
2022-08-04T08:42:18.800Z,55.08
2022-08-04T08:45:12.816Z,54.93
2022-08-04T08:48:21.070Z,54.88
2022-08-04T08:50:47.572Z,54.60
2022-08-04T08:53:24.302Z,54.45
2022-08-04T08:56:02.805Z,54.61
2022-08-04T08:58:46.932Z,54.72
2022-08-04T09:01:41.980Z,54.63
2022-08-04T09:04:33.284Z,54.51
2022-08-04T09:07:13.839Z,54.22
2022-08-04T09:09:49.532Z,54.08
2022-08-04T09:12:31.550Z,54.24
2022-08-04T09:15:12.680Z,54.15
2022-08-04T09:18:02.216Z,53.57
2022-08-04T09:20:40.526Z,52.92
2022-08-04T09:23:24.079Z,52.80
2022-08-04T09:26:15.675Z,52.56
2022-08-04T09:28:57.891Z,52.00
2022-08-04T09:31:51.534Z,52.11
2022-08-04T09:35:03.109Z,51.79
2022-08-04T09:37:51.520Z,51.03
2022-08-04T09:40:53.615Z,50.67
2022-08-04T09:44:49.133Z,50.21
2022-08-04T09:47:39.857Z,48.71
2022-08-04T09:50:37.707Z,48.02
2022-08-04T09:53:24.986Z,47.79
2022-08-04T09:56:14.782Z,47.35
2022-08-04T09:58:54.081Z,46.75
2022-08-04T10:01:24.299Z,46.30
2022-08-04T10:03:55.139Z,45.87
2022-08-04T10:07:00.770Z,46.02
2022-08-04T10:10:12.297Z,45.92
2022-08-04T10:12:49.264Z,45.60
2022-08-04T10:15:36.882Z,44.28
2022-08-04T10:18:26.990Z,44.26
2022-08-04T10:21:15.637Z,44.04
2022-08-04T10:24:13.897Z,43.98
2022-08-04T10:26:43.374Z,43.72
2022-08-04T10:29:26.301Z,43.29
2022-08-04T10:32:39.991Z,43.24
2022-08-04T10:35:18.716Z,42.76
2022-08-04T10:38:03.979Z,42.26
2022-08-04T10:40:36.475Z,42.08
2022-08-04T10:43:30.851Z,42.24
2022-08-04T10:46:14.932Z,41.73
2022-08-04T10:48:54.107Z,41.75
2022-08-04T10:51:58.112Z,41.37
2022-08-04T10:54:44.011Z,41.65
2022-08-04T10:57:34.518Z,41.81
2022-08-04T11:00:10.440Z,41.44
2022-08-04T11:03:01.942Z,41.54
2022-08-04T11:05:44.649Z,41.28
2022-08-04T11:08:35.683Z,40.92
2022-08-04T11:11:24.492Z,40.70
2022-08-04T11:14:03.003Z,40.49
2022-08-04T11:16:37.996Z,40.66
2022-08-04T11:19:19.538Z,40.80
2022-08-04T11:22:08.957Z,40.80
2022-08-04T11:25:05.224Z,40.45
2022-08-04T11:27:43.522Z,40.31
2022-08-04T11:30:13.407Z,40.28
2022-08-04T11:32:55.943Z,40.27
2022-08-04T11:35:34.602Z,40.28
2022-08-04T11:38:29.181Z,40.19
2022-08-04T11:41:04.390Z,39.61
2022-08-04T11:44:01.956Z,39.66
2022-08-04T11:46:50.692Z,39.57
2022-08-04T11:49:56.836Z,39.39
2022-08-04T11:52:27.075Z,39.59
2022-08-04T11:54:55.813Z,39.28
2022-08-04T11:57:35.437Z,39.28
2022-08-04T12:00:07.287Z,38.94
2022-08-04T12:02:52.265Z,38.63
2022-08-04T12:05:37.116Z,38.59
2022-08-04T12:08:33.236Z,38.37
2022-08-04T12:11:21.359Z,37.70
2022-08-04T12:14:03.226Z,37.97
2022-08-04T12:17:01.696Z,37.54
2022-08-04T12:19:52.153Z,37.24
2022-08-04T12:22:32.360Z,38.01
2022-08-04T12:25:12.003Z,37.03
2022-08-04T12:28:00.891Z,36.77
2022-08-04T12:31:00.534Z,37.48
2022-08-04T12:34:03.548Z,37.37
2022-08-04T12:36:31.675Z,37.28
2022-08-04T12:39:13.107Z,37.14
2022-08-04T12:41:44.866Z,36.69
2022-08-04T12:44:37.492Z,36.69
2022-08-04T12:47:27.841Z,36.15
2022-08-04T12:50:00.313Z,36.64
2022-08-04T12:55:18.727Z,36.76
2022-08-04T12:57:47.825Z,36.56
2022-08-04T13:00:31.212Z,36.49
2022-08-04T13:03:10.116Z,36.64
2022-08-04T13:05:39.300Z,36.50
2022-08-04T13:08:07.439Z,36.29
2022-08-04T13:10:39.632Z,36.57
2022-08-04T13:13:12.370Z,36.45
2022-08-04T13:15:47.457Z,35.75
2022-08-04T13:18:29.256Z,35.47
2022-08-04T13:21:10.477Z,35.19
2022-08-04T13:24:10.704Z,35.41
2022-08-04T13:26:42.740Z,35.75
2022-08-04T13:29:59.770Z,35.63
2022-08-04T13:32:15.466Z,35.58
2022-08-04T13:34:49.562Z,35.13
2022-08-04T13:37:25.347Z,35.35
2022-08-04T13:39:55.279Z,34.89
2022-08-04T13:42:24.109Z,34.93
2022-08-04T13:44:56.039Z,34.73
2022-08-04T13:47:28.804Z,34.86
2022-08-04T13:50:16.383Z,34.73
2022-08-04T13:52:44.724Z,34.04
2022-08-04T13:55:32.653Z,34.82
2022-08-04T13:58:02.277Z,34.90
2022-08-04T14:00:41.721Z,34.82
2022-08-04T14:03:22.924Z,34.83
2022-08-04T14:06:28.651Z,35.07
2022-08-04T14:08:58.138Z,34.83
2022-08-04T14:12:06.480Z,34.40
2022-08-04T14:14:29.589Z,34.33
2022-08-04T14:17:05.811Z,34.43
2022-08-04T14:19:47.938Z,34.78
2022-08-04T14:22:26.610Z,34.80
2022-08-04T14:25:06.124Z,34.95
2022-08-04T14:27:48.169Z,35.16
2022-08-04T14:30:35.326Z,35.80
2022-08-04T14:34:04.008Z,35.96
2022-08-04T14:35:59.301Z,36.65
2022-08-04T14:38:45.344Z,36.86
2022-08-04T14:41:13.111Z,37.11
2022-08-04T14:43:52.929Z,36.91
2022-08-04T14:46:20.795Z,37.51
2022-08-04T14:49:23.214Z,37.12
2022-08-04T14:51:55.316Z,37.55
2022-08-04T14:54:33.074Z,38.00
2022-08-04T14:57:07.200Z,37.77
2022-08-04T14:59:59.002Z,37.90
2022-08-04T15:02:29.906Z,38.00
2022-08-04T15:04:58.687Z,38.30
2022-08-04T15:07:26.224Z,38.30
2022-08-04T15:09:53.823Z,38.50
2022-08-04T15:12:34.640Z,38.77
2022-08-04T15:15:20.038Z,38.81
2022-08-04T15:17:48.862Z,38.51
2022-08-04T15:20:17.525Z,38.51
2022-08-04T15:22:44.183Z,38.75
2022-08-04T15:25:12.037Z,38.81
2022-08-04T15:27:43.924Z,39.06
2022-08-04T15:30:13.672Z,39.46
2022-08-04T15:32:44.249Z,39.58
2022-08-04T15:35:17.403Z,39.54
2022-08-04T15:38:02.442Z,39.65
2022-08-04T15:40:37.105Z,39.75
2022-08-04T15:43:20.170Z,39.94
2022-08-04T15:46:33.034Z,39.74
2022-08-04T15:48:39.730Z,40.19
2022-08-04T15:51:14.744Z,39.83
2022-08-04T15:54:03.059Z,39.60
2022-08-04T15:56:28.618Z,39.69
2022-08-04T15:58:56.895Z,39.23
2022-08-04T16:01:24.366Z,39.28
2022-08-04T16:03:58.743Z,39.38
2022-08-04T16:06:29.144Z,38.81
2022-08-04T16:09:04.684Z,38.95
2022-08-04T16:11:37.844Z,38.90
2022-08-04T16:14:05.464Z,38.59
2022-08-04T16:16:49.215Z,38.77
2022-08-04T16:19:51.816Z,39.14
2022-08-04T16:22:41.320Z,39.25
2022-08-04T16:25:12.031Z,38.55
2022-08-04T16:27:41.509Z,38.32
2022-08-04T16:30:14.306Z,38.14
2022-08-04T16:32:52.276Z,38.24
2022-08-04T16:35:20.811Z,38.57
2022-08-04T16:37:53.894Z,38.38
2022-08-04T16:40:34.020Z,38.34
2022-08-04T16:43:13.269Z,38.42
2022-08-04T16:45:46.346Z,38.90
2022-08-04T16:48:18.249Z,38.41
2022-08-04T16:50:53.710Z,38.42
2022-08-04T16:53:57.965Z,38.84
2022-08-04T16:56:14.824Z,38.93
2022-08-04T16:58:50.645Z,38.94
2022-08-04T17:01:33.632Z,39.51
2022-08-04T17:04:13.327Z,39.93
2022-08-04T17:06:42.696Z,40.24
2022-08-04T17:09:17.890Z,40.61
2022-08-04T17:11:48.768Z,40.80
2022-08-04T17:14:28.099Z,41.03
2022-08-04T17:17:02.127Z,41.31
2022-08-04T17:19:29.190Z,41.54
2022-08-04T17:22:04.693Z,41.71
2022-08-04T17:24:38.321Z,41.99
2022-08-04T17:28:19.101Z,42.16
2022-08-04T17:29:53.874Z,42.45
2022-08-04T17:32:22.319Z,42.69
2022-08-04T17:34:55.190Z,42.82
2022-08-04T17:37:39.370Z,43.30
2022-08-04T17:40:18.048Z,43.72
2022-08-04T17:42:49.935Z,43.68
2022-08-04T17:45:50.669Z,43.98
2022-08-04T17:48:11.378Z,44.42
2022-08-04T17:50:51.608Z,44.41
2022-08-04T17:53:52.938Z,44.65
2022-08-04T17:56:29.355Z,44.79
2022-08-04T17:59:52.318Z,45.42
2022-08-04T18:02:08.911Z,45.62
2022-08-04T18:05:06.092Z,45.79
2022-08-04T18:08:38.395Z,46.15
2022-08-04T18:10:56.106Z,46.57
2022-08-04T18:13:28.072Z,46.62
2022-08-04T18:16:04.991Z,46.79
2022-08-04T18:18:31.842Z,47.06
2022-08-04T18:21:03.178Z,47.42
2022-08-04T18:23:32.732Z,47.60
2022-08-04T18:26:02.125Z,48.04
2022-08-04T18:28:30.752Z,48.28
2022-08-04T18:31:00.234Z,48.37
2022-08-04T18:33:39.939Z,48.96
2022-08-04T18:36:33.378Z,49.11
2022-08-04T18:39:13.481Z,49.60
2022-08-04T18:42:00.941Z,49.96
2022-08-04T18:44:30.962Z,50.10
2022-08-04T18:47:19.304Z,50.64
2022-08-04T18:50:59.983Z,50.46
2022-08-04T18:52:32.104Z,51.05
2022-08-04T18:55:01.649Z,51.35
2022-08-04T18:57:59.878Z,51.51
2022-08-04T19:03:05.150Z,52.33
2022-08-04T19:05:41.322Z,52.26
2022-08-04T19:08:32.585Z,52.43
2022-08-04T19:10:59.928Z,52.86
2022-08-04T19:13:27.758Z,52.78
2022-08-04T19:15:54.664Z,53.35
2022-08-04T19:18:25.981Z,53.28
2022-08-04T19:20:55.629Z,53.53
2022-08-04T19:24:10.169Z,53.82
2022-08-04T19:28:56.087Z,53.84
2022-08-04T19:31:28.393Z,53.91
2022-08-04T19:34:04.848Z,54.07
2022-08-04T19:36:33.133Z,53.72
2022-08-04T19:39:03.403Z,53.70
2022-08-04T19:41:32.001Z,53.82
2022-08-04T19:43:58.679Z,53.90
2022-08-04T19:46:27.974Z,53.95
2022-08-04T19:48:59.474Z,53.83
2022-08-04T19:51:30.431Z,53.98
2022-08-04T19:54:04.010Z,54.31
2022-08-04T19:56:39.942Z,54.28
2022-08-04T19:59:13.011Z,54.63
2022-08-04T20:01:45.338Z,54.40
2022-08-04T20:04:15.762Z,54.62
2022-08-04T20:06:43.129Z,54.40
2022-08-04T20:09:25.838Z,54.61
2022-08-04T20:11:55.514Z,54.57
2022-08-04T20:14:32.115Z,54.56
2022-08-04T20:17:03.191Z,54.26
2022-08-04T20:19:36.599Z,54.40
2022-08-04T20:22:03.284Z,54.40
2022-08-04T20:24:40.530Z,54.59
2022-08-04T20:27:15.904Z,54.70
2022-08-04T20:29:49.652Z,54.53
2022-08-04T20:32:21.857Z,54.94
2022-08-04T20:34:53.400Z,54.91
2022-08-04T20:37:23.580Z,55.20
2022-08-04T20:39:55.480Z,55.26
2022-08-04T20:42:27.437Z,55.48
2022-08-04T20:45:00.200Z,55.38
2022-08-04T20:47:35.306Z,55.60
2022-08-04T20:50:08.737Z,55.90
2022-08-04T20:52:37.714Z,56.51
2022-08-04T20:55:08.119Z,56.76
2022-08-04T20:57:48.311Z,57.02
2022-08-04T21:00:29.993Z,57.33
2022-08-04T21:02:58.038Z,57.35
2022-08-04T21:05:27.315Z,57.50
2022-08-04T21:07:57.387Z,57.73
2022-08-04T21:10:27.726Z,57.65
2022-08-04T21:12:54.816Z,57.86
2022-08-04T21:15:50.713Z,57.76
2022-08-04T21:18:12.747Z,57.79
2022-08-04T21:20:43.108Z,57.72
2022-08-04T21:23:10.067Z,57.74
2022-08-04T21:25:42.912Z,57.80
2022-08-04T21:28:10.398Z,57.86
2022-08-04T21:30:52.300Z,57.88
2022-08-04T21:33:22.826Z,57.87
2022-08-04T21:35:54.397Z,58.09
2022-08-04T21:38:25.218Z,58.04
2022-08-04T21:40:56.823Z,58.15
2022-08-04T21:43:27.438Z,58.43
2022-08-04T21:45:55.954Z,58.02
2022-08-04T21:51:59.399Z,58.11
2022-08-04T21:54:07.649Z,58.16
2022-08-04T21:56:35.587Z,58.29
2022-08-04T21:59:07.162Z,58.42
2022-08-04T22:01:52.443Z,58.88
2022-08-04T22:04:21.534Z,58.86
2022-08-04T22:06:52.401Z,58.98
2022-08-04T22:09:21.846Z,58.94
2022-08-04T22:11:51.050Z,59.05
2022-08-04T22:14:27.391Z,59.47
2022-08-04T22:17:00.874Z,59.50
2022-08-04T22:19:50.362Z,59.85
2022-08-04T22:22:25.576Z,59.85
2022-08-04T22:24:58.960Z,59.87
2022-08-04T22:27:44.742Z,60.08
2022-08-04T22:30:17.071Z,60.06
2022-08-04T22:32:46.252Z,60.46
2022-08-04T22:35:35.464Z,60.37
2022-08-04T22:38:06.316Z,60.32
2022-08-04T22:40:47.558Z,60.16
2022-08-04T22:43:32.602Z,60.55
2022-08-04T22:46:06.319Z,60.74
2022-08-04T22:48:35.006Z,60.53
2022-08-04T22:51:02.833Z,60.81
2022-08-04T22:53:30.892Z,60.88
2022-08-04T22:56:09.762Z,61.11
2022-08-04T22:58:45.562Z,61.26
2022-08-04T23:01:17.087Z,61.39
2022-08-04T23:03:51.185Z,61.49
2022-08-04T23:06:24.243Z,61.32
2022-08-04T23:08:51.482Z,61.62
2022-08-04T23:11:18.384Z,61.32
2022-08-04T23:13:45.405Z,61.59
2022-08-04T23:16:12.400Z,61.26
2022-08-04T23:18:41.939Z,61.56
2022-08-04T23:21:10.283Z,61.69
2022-08-04T23:23:38.140Z,61.62
2022-08-04T23:26:13.921Z,61.77
2022-08-04T23:28:41.747Z,62.17
2022-08-04T23:31:10.117Z,62.40
2022-08-04T23:33:51.181Z,62.77
2022-08-04T23:36:19.168Z,62.84
2022-08-04T23:38:59.594Z,63.21
2022-08-04T23:41:54.113Z,62.95
2022-08-04T23:44:17.547Z,62.69
2022-08-04T23:46:51.214Z,62.88
2022-08-04T23:49:20.165Z,63.10
2022-08-04T23:51:49.670Z,63.48
2022-08-04T23:54:16.760Z,63.32
2022-08-04T23:56:52.381Z,63.50
2022-08-04T23:59:49.023Z,63.52
